Terminal Aerodrome Forecast
Issued by NWS Sioux Falls, SD

Home | Current Version | Previous Version | Graphics & Text | Print | Product List | Glossary On
Versions: 1 2 3 4 5 6 7 8 9 10 11 12 13 14 15
970
FTUS43 KFSD 232320
TAFFSD
TAF
KFSD 232320Z 2400/2424 13006KT P6SM OVC010
     FM240700 12008KT P6SM OVC008
     FM241200 09012KT 4SM -SN OVC008
     FM241600 08016G24KT 3SM -SN OVC005
     FM241700 07017KT 1/2SM SN OVC003
     FM242300 04017G25KT 1/2SM SN OVC005=

USA.gov is the U.S. government's official web portal to all federal, state and local government web resources and services.